createdAt,value
2023-05-01T00:01:44.455Z,2.40
2023-05-01T00:04:11.580Z,2.80
2023-05-01T00:06:38.830Z,5.68
2023-05-01T00:09:05.830Z,2.60
2023-05-01T00:11:32.853Z,2.55
2023-05-01T00:13:59.864Z,4.45
2023-05-01T00:18:53.871Z,4.38
2023-05-01T00:21:20.906Z,2.75
2023-05-01T00:23:47.962Z,4.55
2023-05-01T00:26:14.988Z,3.20
2023-05-01T00:28:42.016Z,3.08
2023-05-01T00:31:09.072Z,3.38
2023-05-01T00:33:36.141Z,3.72
2023-05-01T00:36:03.156Z,3.33
2023-05-01T00:38:30.200Z,4.53
2023-05-01T00:40:57.543Z,4.32
2023-05-01T00:43:24.630Z,2.75
2023-05-01T00:45:51.760Z,2.85
2023-05-01T00:48:18.847Z,3.47
2023-05-01T00:50:45.865Z,3.35
2023-05-01T00:53:12.848Z,6.38
2023-05-01T00:55:39.891Z,4.72
2023-05-01T00:58:06.890Z,2.75
2023-05-01T01:00:33.892Z,4.55
2023-05-01T01:03:01.187Z,3.42
2023-05-01T01:05:28.331Z,3.13
2023-05-01T01:07:55.432Z,3.55
2023-05-01T01:10:22.401Z,2.88
2023-05-01T01:12:49.420Z,4.15
2023-05-01T01:15:16.478Z,3.83
2023-05-01T01:17:43.544Z,5.45
2023-05-01T01:20:10.601Z,4.65
2023-05-01T01:22:37.659Z,2.92
2023-05-01T01:25:04.643Z,4.18
2023-05-01T01:27:31.728Z,4.22
2023-05-01T01:29:58.898Z,6.70
2023-05-01T01:32:26.015Z,3.17
2023-05-01T01:34:53.042Z,3.78
2023-05-01T01:37:20.047Z,4.78
2023-05-01T01:39:47.121Z,3.65
2023-05-01T01:42:14.135Z,3.85
2023-05-01T01:44:41.146Z,4.47
2023-05-01T01:47:08.167Z,5.28
2023-05-01T01:49:35.165Z,5.72
2023-05-01T01:52:02.168Z,4.63
2023-05-01T01:54:29.173Z,5.15
2023-05-01T01:56:56.239Z,4.88
2023-05-01T01:59:23.357Z,5.45
2023-05-01T02:01:50.434Z,5.57
2023-05-01T02:04:17.471Z,4.13
2023-05-01T02:06:44.610Z,7.60
2023-05-01T02:09:11.739Z,6.85
2023-05-01T02:11:38.729Z,5.53
2023-05-01T02:14:05.750Z,4.32
2023-05-01T02:16:32.899Z,7.95
2023-05-01T02:18:59.988Z,5.78
2023-05-01T02:21:26.985Z,6.68
2023-05-01T02:23:53.969Z,6.32
2023-05-01T02:26:20.973Z,5.38
2023-05-01T02:28:48.001Z,6.13
2023-05-01T02:31:15.076Z,5.88
2023-05-01T02:33:42.137Z,7.53
2023-05-01T02:36:09.196Z,4.85
2023-05-01T02:38:36.197Z,7.57
2023-05-01T02:41:03.199Z,6.65
2023-05-01T02:43:30.221Z,5.95
2023-05-01T02:45:57.262Z,10.13
2023-05-01T02:48:24.338Z,6.88
2023-05-01T02:50:51.374Z,10.63
2023-05-01T02:53:18.433Z,5.20
2023-05-01T02:55:45.425Z,9.35
2023-05-01T02:58:12.425Z,12.82
2023-05-01T03:00:39.471Z,7.82
2023-05-01T03:03:06.653Z,8.02
2023-05-01T03:05:33.702Z,8.13
2023-05-01T03:08:00.744Z,7.22
2023-05-01T03:10:27.795Z,7.05
2023-05-01T03:12:54.811Z,10.05
2023-05-01T03:15:21.864Z,9.77
2023-05-01T03:17:48.974Z,9.48
2023-05-01T03:20:16.003Z,11.63
2023-05-01T03:22:43.052Z,7.95
2023-05-01T03:25:10.068Z,8.35
2023-05-01T03:27:37.078Z,7.63
2023-05-01T03:30:04.125Z,13.40
2023-05-01T03:32:31.177Z,9.27
2023-05-01T03:34:58.267Z,10.80
2023-05-01T03:37:25.284Z,10.18
2023-05-01T03:39:52.300Z,7.13
2023-05-01T03:42:19.323Z,10.05
2023-05-01T03:44:46.347Z,11.15
2023-05-01T03:47:13.348Z,10.23
2023-05-01T03:49:40.363Z,8.73
2023-05-01T03:52:07.386Z,10.55
2023-05-01T03:54:34.405Z,7.75
2023-05-01T03:57:01.451Z,14.30
2023-05-01T03:59:28.442Z,8.23
2023-05-01T04:01:55.551Z,12.48
2023-05-01T04:04:22.647Z,14.85
2023-05-01T04:06:49.808Z,8.68
2023-05-01T04:09:16.958Z,9.57
2023-05-01T04:11:43.969Z,13.90
2023-05-01T04:14:11.062Z,9.57
2023-05-01T04:16:38.269Z,11.10
2023-05-01T04:19:05.313Z,12.98
2023-05-01T04:21:32.371Z,9.68
2023-05-01T04:23:59.417Z,8.30
2023-05-01T04:26:26.445Z,7.25
2023-05-01T04:28:53.959Z,11.55
2023-05-01T04:31:21.014Z,11.48
2023-05-01T04:33:48.053Z,9.73
2023-05-01T04:36:15.102Z,9.43
2023-05-01T04:38:42.126Z,13.32
2023-05-01T04:41:09.133Z,9.73
2023-05-01T04:43:36.130Z,14.70
2023-05-01T04:46:03.165Z,10.30
2023-05-01T04:48:30.197Z,8.35
2023-05-01T04:50:57.210Z,10.25
2023-05-01T04:53:24.311Z,8.65
2023-05-01T04:55:51.323Z,9.65
2023-05-01T04:58:18.370Z,10.80
2023-05-01T05:00:45.437Z,8.63
2023-05-01T05:03:12.555Z,7.88
2023-05-01T05:05:39.618Z,9.68
2023-05-01T05:08:06.652Z,10.85
2023-05-01T05:10:33.766Z,12.48
2023-05-01T05:13:00.815Z,8.20
2023-05-01T05:15:27.864Z,9.65
2023-05-01T05:17:56.568Z,12.57
2023-05-01T05:20:23.861Z,9.35
2023-05-01T05:22:50.878Z,8.20
2023-05-01T05:25:18.280Z,11.43
2023-05-01T05:27:45.269Z,11.18
2023-05-01T05:30:12.292Z,13.32
2023-05-01T05:32:39.354Z,8.60
2023-05-01T05:35:06.393Z,12.25
2023-05-01T05:37:33.436Z,11.60
2023-05-01T05:40:00.464Z,9.05
2023-05-01T05:42:27.538Z,12.13
2023-05-01T05:44:54.599Z,11.13
2023-05-01T05:47:24.635Z,12.68
2023-05-01T05:49:51.703Z,9.80
2023-05-01T05:52:18.724Z,8.77
2023-05-01T05:54:45.762Z,10.65
2023-05-01T05:57:12.782Z,11.75
2023-05-01T05:59:40.272Z,10.85
2023-05-01T06:02:10.268Z,13.82
2023-05-01T06:04:37.309Z,9.75
2023-05-01T06:07:06.355Z,13.43
2023-05-01T06:09:33.434Z,8.27
2023-05-01T06:12:00.495Z,9.70
2023-05-01T06:14:27.516Z,7.38
2023-05-01T06:16:54.621Z,10.40
2023-05-01T06:19:21.714Z,10.98
2023-05-01T06:21:48.888Z,11.45
2023-05-01T06:24:16.009Z,11.68
2023-05-01T06:26:43.060Z,9.90
2023-05-01T06:29:10.423Z,11.10
2023-05-01T06:31:37.454Z,11.93
2023-05-01T06:34:04.494Z,10.45
2023-05-01T06:36:31.599Z,14.93
2023-05-01T06:38:58.662Z,10.05
2023-05-01T06:41:25.701Z,11.70
2023-05-01T06:43:52.752Z,9.80
2023-05-01T06:46:19.835Z,11.55
2023-05-01T06:48:46.875Z,11.00
2023-05-01T06:51:13.892Z,12.25
2023-05-01T06:53:40.929Z,11.05
2023-05-01T06:56:07.958Z,10.63
2023-05-01T06:58:35.015Z,11.35
2023-05-01T07:01:02.110Z,9.65
2023-05-01T07:03:29.137Z,12.82
2023-05-01T07:05:56.334Z,13.50
2023-05-01T07:08:23.491Z,9.20
2023-05-01T07:10:50.534Z,9.30
2023-05-01T07:13:17.584Z,8.98
2023-05-01T07:15:44.606Z,10.10
2023-05-01T07:18:11.714Z,16.00
2023-05-01T07:20:38.807Z,8.38
2023-05-01T07:23:07.403Z,9.32
2023-05-01T07:25:34.784Z,11.80
2023-05-01T07:28:01.887Z,8.23
2023-05-01T07:30:29.173Z,7.35
2023-05-01T07:32:56.284Z,6.22
2023-05-01T07:35:23.371Z,13.48
2023-05-01T07:37:50.447Z,6.90
2023-05-01T07:40:17.495Z,8.07
2023-05-01T07:42:44.547Z,6.25
2023-05-01T07:45:11.683Z,9.10
2023-05-01T07:47:38.736Z,7.95
2023-05-01T07:50:05.783Z,7.63
2023-05-01T07:52:32.823Z,7.30
2023-05-01T07:54:59.838Z,6.75
2023-05-01T07:57:26.917Z,8.55
2023-05-01T07:59:54.101Z,6.53
2023-05-01T08:02:21.282Z,6.72
2023-05-01T08:04:48.807Z,5.82
2023-05-01T08:07:15.821Z,4.72
2023-05-01T08:09:42.840Z,5.55
2023-05-01T08:12:09.889Z,4.53
2023-05-01T08:14:36.894Z,4.03
2023-05-01T08:17:03.990Z,9.00
2023-05-01T08:19:30.991Z,4.18
2023-05-01T08:21:58.031Z,3.78
2023-05-01T08:24:25.094Z,4.70
2023-05-01T08:26:52.113Z,3.63
2023-05-01T08:29:19.154Z,4.88
2023-05-01T08:31:46.304Z,3.17
2023-05-01T08:34:13.462Z,5.22
2023-05-01T08:36:40.502Z,4.30
2023-05-01T08:39:07.823Z,3.25
2023-05-01T08:41:34.893Z,3.78
2023-05-01T08:44:01.903Z,3.17
2023-05-01T08:46:28.955Z,4.00
2023-05-01T08:48:56.074Z,4.40
2023-05-01T08:51:23.181Z,6.55
2023-05-01T08:53:50.241Z,7.82
2023-05-01T08:56:17.264Z,4.88
2023-05-01T08:58:44.310Z,5.00
2023-05-01T09:01:11.330Z,3.45
2023-05-01T09:03:38.729Z,4.75
2023-05-01T09:06:05.748Z,4.47
2023-05-01T09:08:32.797Z,4.78
2023-05-01T09:10:59.907Z,5.85
2023-05-01T09:13:26.984Z,3.80
2023-05-01T09:15:54.083Z,5.30
2023-05-01T09:18:21.145Z,5.03
2023-05-01T09:20:48.153Z,3.40
2023-05-01T09:23:15.182Z,4.13
2023-05-01T09:25:42.226Z,3.25
2023-05-01T09:28:09.261Z,2.88
2023-05-01T09:30:36.297Z,4.88
2023-05-01T09:33:03.387Z,4.38
2023-05-01T09:35:30.431Z,4.97
2023-05-01T09:37:57.435Z,3.70
2023-05-01T09:40:27.100Z,5.43
2023-05-01T09:42:54.126Z,3.88
2023-05-01T09:45:21.140Z,6.05
2023-05-01T09:47:48.251Z,7.90
2023-05-01T09:50:15.352Z,10.27
2023-05-01T09:52:42.389Z,3.08
2023-05-01T09:55:09.456Z,2.95
2023-05-01T09:57:36.518Z,2.85
2023-05-01T10:00:03.574Z,2.90
2023-05-01T10:02:30.717Z,5.82
2023-05-01T10:04:57.944Z,5.07
2023-05-01T10:07:24.957Z,3.55
2023-05-01T10:09:51.992Z,2.92
2023-05-01T10:12:19.017Z,6.28
2023-05-01T10:14:46.082Z,5.03
2023-05-01T10:17:13.170Z,3.55
2023-05-01T10:19:40.233Z,6.57
2023-05-01T10:22:07.259Z,3.25
2023-05-01T10:24:34.286Z,3.92
2023-05-01T10:27:01.305Z,5.10
2023-05-01T10:29:28.320Z,2.78
2023-05-01T10:31:55.469Z,7.70
2023-05-01T10:34:22.539Z,3.00
2023-05-01T10:36:49.571Z,4.25
2023-05-01T10:39:16.580Z,3.00
2023-05-01T10:41:43.615Z,2.55
2023-05-01T10:44:10.643Z,4.85
2023-05-01T10:46:37.716Z,8.15
2023-05-01T10:49:04.803Z,2.40
2023-05-01T10:51:31.884Z,2.83
2023-05-01T10:53:58.893Z,3.13
2023-05-01T10:56:25.893Z,3.95
2023-05-01T10:58:53.164Z,2.78
2023-05-01T11:01:20.232Z,3.28
2023-05-01T11:03:47.278Z,2.40
2023-05-01T11:06:14.486Z,2.30
2023-05-01T11:08:41.657Z,2.22
2023-05-01T11:11:08.700Z,2.42
2023-05-01T11:13:35.925Z,2.20
2023-05-01T11:16:03.024Z,2.50
2023-05-01T11:18:30.116Z,2.13
2023-05-01T11:20:57.164Z,4.93
2023-05-01T11:23:24.204Z,4.03
2023-05-01T11:25:51.315Z,3.67
2023-05-01T11:28:18.424Z,2.17
2023-05-01T11:30:45.491Z,2.28
2023-05-01T11:33:12.646Z,1.80
2023-05-01T11:35:39.728Z,2.15
2023-05-01T11:38:06.745Z,1.90
2023-05-01T11:40:33.787Z,1.70
2023-05-01T11:43:00.791Z,2.33
2023-05-01T11:45:27.858Z,2.38
2023-05-01T11:47:54.898Z,2.60
2023-05-01T11:50:22.054Z,2.58
2023-05-01T11:52:49.156Z,2.38
2023-05-01T11:55:16.158Z,2.75
2023-05-01T11:57:43.147Z,2.85
2023-05-01T12:00:10.392Z,2.42
2023-05-01T12:02:37.548Z,2.55
2023-05-01T12:05:04.906Z,2.03
2023-05-01T12:07:32.351Z,2.42
2023-05-01T12:09:59.378Z,3.20
2023-05-01T12:12:26.444Z,2.05
2023-05-01T12:14:53.491Z,3.33
2023-05-01T12:17:20.573Z,2.83
2023-05-01T12:19:47.681Z,2.15
2023-05-01T12:22:14.682Z,6.97
2023-05-01T12:24:41.719Z,2.63
2023-05-01T12:27:08.774Z,1.90
2023-05-01T12:29:35.807Z,2.30
2023-05-01T12:32:02.941Z,1.60
2023-05-01T12:34:30.108Z,3.35
2023-05-01T12:36:57.213Z,3.55
2023-05-01T12:39:24.236Z,2.05
2023-05-01T12:41:51.285Z,3.97
2023-05-01T12:44:18.296Z,2.17
2023-05-01T12:46:45.371Z,1.90
2023-05-01T12:49:12.433Z,2.15
2023-05-01T12:51:39.478Z,2.55
2023-05-01T12:54:06.512Z,2.42
2023-05-01T12:56:33.548Z,3.53
2023-05-01T12:59:00.564Z,4.68
2023-05-01T13:01:27.647Z,2.60
2023-05-01T13:03:55.233Z,2.83
2023-05-01T13:06:22.397Z,2.58
2023-05-01T13:08:49.485Z,2.85
2023-05-01T13:11:16.510Z,2.30
2023-05-01T13:13:43.530Z,4.70
2023-05-01T13:16:10.647Z,3.08
2023-05-01T13:18:37.718Z,2.30
2023-05-01T13:21:04.745Z,2.25
2023-05-01T13:23:31.799Z,2.60
2023-05-01T13:25:58.803Z,3.83
2023-05-01T13:28:25.928Z,4.78
2023-05-01T13:30:52.961Z,4.68
2023-05-01T13:33:19.982Z,3.20
2023-05-01T13:35:47.021Z,3.55
2023-05-01T13:38:14.084Z,3.13
2023-05-01T13:40:41.122Z,3.00
2023-05-01T13:43:08.147Z,3.60
2023-05-01T13:45:35.204Z,4.90
2023-05-01T13:48:02.283Z,4.25
2023-05-01T13:50:29.560Z,6.03
2023-05-01T13:52:56.591Z,4.15
2023-05-01T13:55:23.596Z,5.00
2023-05-01T13:57:50.654Z,4.45
2023-05-01T14:00:17.944Z,4.40
2023-05-01T14:02:45.561Z,5.30
2023-05-01T14:05:12.658Z,4.80
2023-05-01T14:07:39.704Z,4.57
2023-05-01T14:10:06.724Z,5.80
2023-05-01T14:12:33.723Z,4.93
2023-05-01T14:15:01.207Z,6.38
2023-05-01T14:17:28.906Z,4.32
2023-05-01T14:19:56.280Z,4.53
2023-05-01T14:22:23.325Z,4.60
2023-05-01T14:24:50.394Z,5.55
2023-05-01T14:27:17.427Z,4.82
2023-05-01T14:29:44.460Z,5.30
2023-05-01T14:32:11.525Z,4.20
2023-05-01T14:34:38.553Z,4.40
2023-05-01T14:37:05.581Z,7.28
2023-05-01T14:39:32.658Z,5.50
2023-05-01T14:41:59.687Z,5.22
2023-05-01T14:44:26.692Z,5.18
2023-05-01T14:46:53.940Z,7.53
2023-05-01T14:49:21.153Z,5.28
2023-05-01T14:51:48.210Z,6.68
2023-05-01T14:54:15.292Z,5.50
2023-05-01T14:56:42.334Z,6.72
2023-05-01T14:59:09.388Z,4.80
2023-05-01T15:01:36.461Z,5.43
2023-05-01T15:04:04.169Z,4.53
2023-05-01T15:06:31.254Z,5.45
2023-05-01T15:08:58.324Z,3.95
2023-05-01T15:11:25.352Z,6.32
2023-05-01T15:13:52.456Z,4.32
2023-05-01T15:16:19.529Z,4.95
2023-05-01T15:18:46.565Z,4.97
2023-05-01T15:21:13.603Z,4.65
2023-05-01T15:23:40.619Z,4.80
2023-05-01T15:26:07.631Z,4.88
2023-05-01T15:28:34.649Z,5.82
2023-05-01T15:31:02.029Z,5.57
2023-05-01T15:33:29.069Z,5.18
2023-05-01T15:35:56.190Z,5.25
2023-05-01T15:38:23.198Z,5.30
2023-05-01T15:40:50.326Z,4.93
2023-05-01T15:43:17.411Z,4.55
2023-05-01T15:45:44.534Z,4.80
2023-05-01T15:48:11.747Z,6.22
2023-05-01T15:50:38.862Z,6.35
2023-05-01T15:53:05.912Z,5.97
2023-05-01T15:55:32.938Z,4.55
2023-05-01T15:57:59.972Z,4.43
2023-05-01T16:00:27.018Z,6.07
2023-05-01T16:02:54.184Z,4.38
2023-05-01T16:05:21.256Z,4.78
2023-05-01T16:07:48.293Z,4.45
2023-05-01T16:10:15.340Z,5.18
2023-05-01T16:12:42.419Z,4.72
2023-05-01T16:15:09.453Z,5.43
2023-05-01T16:17:36.569Z,4.82
2023-05-01T16:20:03.775Z,5.00
2023-05-01T16:22:30.871Z,5.68
2023-05-01T16:24:57.909Z,5.43
2023-05-01T16:27:24.965Z,6.82
2023-05-01T16:29:51.967Z,5.07
2023-05-01T16:32:19.015Z,6.65
2023-05-01T16:34:46.052Z,6.47
2023-05-01T16:37:13.078Z,4.88
2023-05-01T16:39:40.143Z,5.18
2023-05-01T16:42:07.162Z,5.28
2023-05-01T16:44:34.155Z,5.60
2023-05-01T16:47:01.189Z,5.93
2023-05-01T16:49:28.224Z,4.78
2023-05-01T16:51:55.298Z,5.20
2023-05-01T16:54:22.320Z,5.03
2023-05-01T16:56:49.388Z,5.53
2023-05-01T16:59:16.435Z,7.10
2023-05-01T17:01:43.941Z,5.85
2023-05-01T17:04:11.091Z,6.70
2023-05-01T17:06:38.260Z,5.22
2023-05-01T17:09:05.338Z,5.28
2023-05-01T17:11:32.343Z,4.93
2023-05-01T17:13:59.363Z,6.70
2023-05-01T17:16:26.460Z,5.82
2023-05-01T17:18:53.506Z,4.97
2023-05-01T17:21:20.530Z,7.03
2023-05-01T17:23:47.559Z,5.72
2023-05-01T17:26:14.599Z,4.78
2023-05-01T17:28:41.632Z,4.88
2023-05-01T17:31:08.634Z,4.88
2023-05-01T17:33:35.734Z,4.40
2023-05-01T17:36:02.866Z,4.72
2023-05-01T17:38:29.907Z,4.63
2023-05-01T17:40:56.925Z,4.32
2023-05-01T17:43:23.918Z,7.50
2023-05-01T17:45:50.945Z,5.97
2023-05-01T17:48:18.016Z,6.28
2023-05-01T17:50:45.056Z,5.32
2023-05-01T17:53:12.094Z,5.68
2023-05-01T17:55:39.160Z,4.63
2023-05-01T17:58:06.189Z,4.38
2023-05-01T18:00:33.247Z,5.25
2023-05-01T18:03:00.411Z,4.80
2023-05-01T18:05:27.717Z,8.23
2023-05-01T18:07:54.807Z,4.97
2023-05-01T18:10:21.832Z,5.10
2023-05-01T18:12:48.903Z,4.05
2023-05-01T18:15:21.649Z,6.35
2023-05-01T18:17:49.865Z,3.67
2023-05-01T18:20:16.982Z,3.83
2023-05-01T18:22:44.045Z,4.30
2023-05-01T18:25:11.115Z,3.90
2023-05-01T18:27:38.125Z,3.55
2023-05-01T18:30:05.182Z,3.75
2023-05-01T18:32:46.265Z,3.90
2023-05-01T18:35:14.372Z,3.45
2023-05-01T18:37:41.409Z,3.63
2023-05-01T18:40:08.388Z,3.75
2023-05-01T18:42:35.385Z,3.38
2023-05-01T18:45:02.405Z,4.22
2023-05-01T18:47:29.550Z,5.63
2023-05-01T18:49:56.663Z,4.05
2023-05-01T18:52:23.704Z,4.57
2023-05-01T18:54:50.865Z,5.57
2023-05-01T18:57:17.892Z,4.25
2023-05-01T18:59:45.082Z,3.65
2023-05-01T19:02:12.305Z,3.70
2023-05-01T19:04:49.433Z,4.57
2023-05-01T19:07:23.528Z,5.38
2023-05-01T19:09:50.610Z,6.68
2023-05-01T19:12:17.708Z,5.38
2023-05-01T19:14:44.750Z,5.30
2023-05-01T19:17:11.778Z,6.10
2023-05-01T19:19:38.768Z,4.85
2023-05-01T19:22:05.800Z,5.72
2023-05-01T19:24:32.851Z,6.18
2023-05-01T19:26:59.862Z,5.97
2023-05-01T19:29:26.850Z,5.20
2023-05-01T19:31:53.911Z,5.28
2023-05-01T19:34:20.968Z,7.30
2023-05-01T19:36:48.009Z,5.47
2023-05-01T19:39:15.024Z,6.18
2023-05-01T19:41:42.046Z,5.95
2023-05-01T19:44:09.069Z,7.60
2023-05-01T19:46:36.100Z,5.70
2023-05-01T19:49:03.236Z,6.65
2023-05-01T19:51:30.272Z,5.45
2023-05-01T19:53:57.306Z,5.68
2023-05-01T19:56:24.331Z,5.70
2023-05-01T19:58:51.385Z,6.00
2023-05-01T20:01:18.466Z,6.28
2023-05-01T20:03:45.639Z,5.90
2023-05-01T20:06:12.705Z,6.40
2023-05-01T20:08:39.750Z,6.57
2023-05-01T20:11:06.780Z,6.30
2023-05-01T20:13:33.835Z,7.88
2023-05-01T20:16:00.861Z,7.03
2023-05-01T20:18:27.869Z,6.60
2023-05-01T20:20:54.895Z,6.25
2023-05-01T20:23:22.394Z,6.68
2023-05-01T20:25:49.407Z,5.07
2023-05-01T20:28:16.426Z,5.50
2023-05-01T20:30:43.517Z,5.32
2023-05-01T20:33:10.705Z,9.50
2023-05-01T20:35:37.740Z,8.48
2023-05-01T20:38:04.732Z,7.20
2023-05-01T20:40:31.748Z,9.23
2023-05-01T20:42:58.767Z,9.15
2023-05-01T20:45:44.057Z,7.32
2023-05-01T20:48:12.379Z,7.65
2023-05-01T20:50:39.393Z,7.80
2023-05-01T20:53:06.390Z,8.20
2023-05-01T20:55:33.409Z,6.43
2023-05-01T20:58:00.483Z,9.98
2023-05-01T21:00:27.498Z,10.20
2023-05-01T21:02:54.650Z,7.45
2023-05-01T21:05:21.722Z,9.38
2023-05-01T21:07:48.755Z,8.18
2023-05-01T21:10:15.813Z,8.93
2023-05-01T21:12:42.869Z,9.70
2023-05-01T21:15:09.893Z,11.05
2023-05-01T21:17:36.963Z,7.88
2023-05-01T21:20:04.006Z,9.05
2023-05-01T21:22:31.000Z,6.85
2023-05-01T21:24:58.414Z,7.22
2023-05-01T21:27:25.421Z,7.60
2023-05-01T21:29:52.439Z,6.38
2023-05-01T21:32:19.676Z,6.35
2023-05-01T21:34:46.711Z,5.78
2023-05-01T21:37:14.097Z,7.35
2023-05-01T21:39:41.109Z,7.55
2023-05-01T21:42:08.295Z,6.93
2023-05-01T21:44:35.321Z,7.13
2023-05-01T21:47:02.399Z,7.00
2023-05-01T21:49:29.524Z,8.43
2023-05-01T21:51:56.539Z,8.20
2023-05-01T21:54:23.608Z,7.90
2023-05-01T21:56:50.659Z,11.70
2023-05-01T21:59:17.681Z,8.13
2023-05-01T22:01:44.739Z,10.70
2023-05-01T22:04:11.946Z,7.40
2023-05-01T22:06:39.070Z,7.80
2023-05-01T22:09:06.116Z,9.27
2023-05-01T22:11:33.185Z,9.82
2023-05-01T22:14:00.224Z,9.00
2023-05-01T22:16:27.288Z,8.57
2023-05-01T22:18:54.334Z,8.02
2023-05-01T22:21:21.380Z,8.00
2023-05-01T22:23:48.413Z,8.20
2023-05-01T22:26:15.430Z,8.02
2023-05-01T22:28:42.489Z,7.72
2023-05-01T22:31:09.488Z,11.68
2023-05-01T22:33:37.189Z,8.15
2023-05-01T22:36:06.812Z,8.38
2023-05-01T22:38:34.576Z,8.85
2023-05-01T22:41:01.583Z,8.70
2023-05-01T22:43:29.096Z,7.40
2023-05-01T22:45:56.148Z,9.52
2023-05-01T22:48:23.205Z,7.93
2023-05-01T22:50:50.260Z,12.70
2023-05-01T22:53:17.286Z,8.32
2023-05-01T22:55:44.361Z,7.82
2023-05-01T22:58:11.430Z,7.40
2023-05-01T23:00:38.472Z,8.32
2023-05-01T23:03:05.581Z,9.02
2023-05-01T23:05:32.679Z,11.35
2023-05-01T23:07:59.739Z,7.80
2023-05-01T23:10:26.765Z,9.63
2023-05-01T23:12:53.796Z,7.97
2023-05-01T23:15:20.807Z,7.47
2023-05-01T23:17:47.934Z,6.78
2023-05-01T23:20:15.002Z,7.55
2023-05-01T23:22:41.989Z,8.35
2023-05-01T23:25:09.031Z,9.43
2023-05-01T23:27:36.066Z,9.30
2023-05-01T23:30:03.303Z,9.48
2023-05-01T23:32:30.615Z,9.07
2023-05-01T23:34:57.682Z,10.10
2023-05-01T23:37:24.699Z,9.25
2023-05-01T23:39:51.744Z,10.32
2023-05-01T23:42:18.759Z,8.88
2023-05-01T23:44:45.801Z,7.97
2023-05-01T23:47:12.924Z,8.20
2023-05-01T23:49:40.049Z,7.38
2023-05-01T23:52:07.141Z,7.35
2023-05-01T23:54:34.156Z,7.28
2023-05-01T23:57:01.180Z,9.65
2023-05-01T23:59:28.188Z,9.13
